sensor_id;sensor_type;location;lat;lon;timestamp;pressure;altitude;pressure_sealevel;temperature;humidity
10618;BME280;5356;43.526;26.534;2023-01-29T00:01:38;99321.97;;;3.12;100.00
10618;BME280;5356;43.526;26.534;2023-01-29T00:04:04;99332.66;;;3.03;100.00
10618;BME280;5356;43.526;26.534;2023-01-29T00:06:29;99328.09;;;2.97;100.00
10618;BME280;5356;43.526;26.534;2023-01-29T00:08:55;99332.88;;;2.93;100.00
10618;BME280;5356;43.526;26.534;2023-01-29T00:11:21;99330.72;;;2.88;100.00
10618;BME280;5356;43.526;26.534;2023-01-29T00:13:48;99329.75;;;2.98;100.00
10618;BME280;5356;43.526;26.534;2023-01-29T00:16:13;99330.72;;;2.97;100.00
10618;BME280;5356;43.526;26.534;2023-01-29T00:18:40;99339.59;;;2.96;100.00
10618;BME280;5356;43.526;26.534;2023-01-29T00:21:10;99336.84;;;2.89;100.00
10618;BME280;5356;43.526;26.534;2023-01-29T00:23:36;99335.34;;;2.95;100.00
10618;BME280;5356;43.526;26.534;2023-01-29T00:26:01;99339.13;;;2.92;100.00
10618;BME280;5356;43.526;26.534;2023-01-29T00:28:27;99337.47;;;2.83;100.00
10618;BME280;5356;43.526;26.534;2023-01-29T00:30:52;99338.66;;;2.80;100.00
10618;BME280;5356;43.526;26.534;2023-01-29T00:33:17;99341.25;;;2.88;100.00
10618;BME280;5356;43.526;26.534;2023-01-29T00:35:43;99344.53;;;2.90;100.00
10618;BME280;5356;43.526;26.534;2023-01-29T00:38:09;99345.69;;;2.88;100.00
10618;BME280;5356;43.526;26.534;2023-01-29T00:40:38;99348.00;;;2.83;100.00
10618;BME280;5356;43.526;26.534;2023-01-29T00:43:22;99348.84;;;2.83;100.00
10618;BME280;5356;43.526;26.534;2023-01-29T00:46:06;99350.13;;;2.79;100.00
10618;BME280;5356;43.526;26.534;2023-01-29T00:48:32;99353.44;;;2.81;100.00
10618;BME280;5356;43.526;26.534;2023-01-29T00:50:58;99353.44;;;2.89;100.00
10618;BME280;5356;43.526;26.534;2023-01-29T00:53:24;99352.28;;;2.92;100.00
10618;BME280;5356;43.526;26.534;2023-01-29T00:55:49;99360.31;;;2.90;100.00
10618;BME280;5356;43.526;26.534;2023-01-29T00:58:15;99363.97;;;2.89;100.00
10618;BME280;5356;43.526;26.534;2023-01-29T01:00:46;99363.63;;;2.92;100.00
10618;BME280;5356;43.526;26.534;2023-01-29T01:03:12;99362.94;;;2.99;100.00
10618;BME280;5356;43.526;26.534;2023-01-29T01:05:37;99363.94;;;3.06;100.00
10618;BME280;5356;43.526;26.534;2023-01-29T01:08:03;99358.81;;;3.12;100.00
10618;BME280;5356;43.526;26.534;2023-01-29T01:10:57;99358.00;;;3.12;100.00
10618;BME280;5356;43.526;26.534;2023-01-29T01:13:23;99355.53;;;3.10;100.00
10618;BME280;5356;43.526;26.534;2023-01-29T01:15:49;99355.72;;;3.09;100.00
10618;BME280;5356;43.526;26.534;2023-01-29T01:18:14;99354.25;;;3.06;100.00
10618;BME280;5356;43.526;26.534;2023-01-29T01:20:40;99359.31;;;3.08;100.00
10618;BME280;5356;43.526;26.534;2023-01-29T01:23:06;99359.16;;;3.09;100.00
10618;BME280;5356;43.526;26.534;2023-01-29T01:25:32;99365.25;;;3.10;100.00
10618;BME280;5356;43.526;26.534;2023-01-29T01:27:58;99351.28;;;3.01;100.00
10618;BME280;5356;43.526;26.534;2023-01-29T01:30:24;99352.28;;;3.00;100.00
10618;BME280;5356;43.526;26.534;2023-01-29T01:32:50;99353.41;;;3.06;100.00
10618;BME280;5356;43.526;26.534;2023-01-29T01:35:16;99352.09;;;3.10;100.00
10618;BME280;5356;43.526;26.534;2023-01-29T01:37:41;99356.00;;;3.14;100.00
10618;BME280;5356;43.526;26.534;2023-01-29T01:40:12;99358.66;;;3.14;100.00
10618;BME280;5356;43.526;26.534;2023-01-29T01:42:43;99353.06;;;3.17;100.00
10618;BME280;5356;43.526;26.534;2023-01-29T01:45:19;99345.47;;;3.22;100.00
10618;BME280;5356;43.526;26.534;2023-01-29T01:47:47;99351.25;;;3.18;100.00
10618;BME280;5356;43.526;26.534;2023-01-29T01:50:23;99355.72;;;3.17;100.00
10618;BME280;5356;43.526;26.534;2023-01-29T01:52:52;99354.72;;;3.18;100.00
10618;BME280;5356;43.526;26.534;2023-01-29T01:55:22;99355.19;;;3.22;100.00
10618;BME280;5356;43.526;26.534;2023-01-29T01:57:52;99357.66;;;3.23;100.00
10618;BME280;5356;43.526;26.534;2023-01-29T02:00:21;99358.47;;;3.24;100.00
10618;BME280;5356;43.526;26.534;2023-01-29T02:02:49;99357.81;;;3.22;100.00
10618;BME280;5356;43.526;26.534;2023-01-29T02:05:34;99363.06;;;3.22;100.00
10618;BME280;5356;43.526;26.534;2023-01-29T02:09:13;99367.19;;;3.16;100.00
10618;BME280;5356;43.526;26.534;2023-01-29T02:11:31;99357.16;;;3.20;100.00
10618;BME280;5356;43.526;26.534;2023-01-29T02:13:56;99368.00;;;3.25;100.00
10618;BME280;5356;43.526;26.534;2023-01-29T02:16:22;99367.34;;;3.23;100.00
10618;BME280;5356;43.526;26.534;2023-01-29T02:18:48;99370.50;;;3.18;100.00
10618;BME280;5356;43.526;26.534;2023-01-29T02:33:20;99380.03;;;3.19;100.00
10618;BME280;5356;43.526;26.534;2023-01-29T02:35:42;99370.81;;;3.23;100.00
10618;BME280;5356;43.526;26.534;2023-01-29T02:41:04;99370.63;;;3.25;100.00
10618;BME280;5356;43.526;26.534;2023-01-29T02:43:44;99374.41;;;3.22;100.00
10618;BME280;5356;43.526;26.534;2023-01-29T02:51:49;99375.56;;;3.20;100.00
10618;BME280;5356;43.526;26.534;2023-01-29T02:54:58;99374.63;;;3.12;100.00
10618;BME280;5356;43.526;26.534;2023-01-29T02:57:19;99376.91;;;3.07;100.00
10618;BME280;5356;43.526;26.534;2023-01-29T03:02:23;99379.75;;;3.06;100.00
10618;BME280;5356;43.526;26.534;2023-01-29T03:04:59;99378.59;;;2.92;100.00
10618;BME280;5356;43.526;26.534;2023-01-29T03:07:34;99384.50;;;2.86;100.00
10618;BME280;5356;43.526;26.534;2023-01-29T03:12:39;99388.94;;;2.85;100.00
10618;BME280;5356;43.526;26.534;2023-01-29T03:15:11;99385.50;;;2.85;100.00
10618;BME280;5356;43.526;26.534;2023-01-29T03:17:50;99388.78;;;2.79;100.00
10618;BME280;5356;43.526;26.534;2023-01-29T03:20:22;99392.06;;;2.73;100.00
10618;BME280;5356;43.526;26.534;2023-01-29T03:22:57;99389.59;;;2.63;100.00
10618;BME280;5356;43.526;26.534;2023-01-29T03:25:27;99382.38;;;2.65;100.00
10618;BME280;5356;43.526;26.534;2023-01-29T03:28:14;99386.81;;;2.73;100.00
10618;BME280;5356;43.526;26.534;2023-01-29T03:31:03;99381.88;;;2.78;100.00
10618;BME280;5356;43.526;26.534;2023-01-29T03:33:50;99380.75;;;2.80;100.00
10618;BME280;5356;43.526;26.534;2023-01-29T03:39:03;99383.03;;;2.75;100.00
10618;BME280;5356;43.526;26.534;2023-01-29T03:41:35;99393.38;;;2.68;100.00
10618;BME280;5356;43.526;26.534;2023-01-29T03:46:55;99389.59;;;2.63;100.00
10618;BME280;5356;43.526;26.534;2023-01-29T03:49:59;99384.31;;;2.63;100.00
10618;BME280;5356;43.526;26.534;2023-01-29T03:52:39;99392.72;;;2.58;100.00
10618;BME280;5356;43.526;26.534;2023-01-29T03:55:23;99399.63;;;2.59;100.00
10618;BME280;5356;43.526;26.534;2023-01-29T04:03:38;99401.75;;;2.47;100.00
10618;BME280;5356;43.526;26.534;2023-01-29T04:06:14;99402.09;;;2.53;100.00
10618;BME280;5356;43.526;26.534;2023-01-29T04:11:21;99409.66;;;2.72;100.00
10618;BME280;5356;43.526;26.534;2023-01-29T04:13:48;99400.63;;;2.75;100.00
10618;BME280;5356;43.526;26.534;2023-01-29T04:16:19;99408.69;;;2.81;100.00
10618;BME280;5356;43.526;26.534;2023-01-29T04:18:47;99408.16;;;2.86;100.00
10618;BME280;5356;43.526;26.534;2023-01-29T04:21:14;99395.88;;;2.86;100.00
10618;BME280;5356;43.526;26.534;2023-01-29T04:23:40;99409.97;;;2.85;100.00
10618;BME280;5356;43.526;26.534;2023-01-29T04:32:08;99410.16;;;2.92;100.00
10618;BME280;5356;43.526;26.534;2023-01-29T04:37:19;99414.91;;;3.05;100.00
10618;BME280;5356;43.526;26.534;2023-01-29T04:39:59;99409.66;;;3.05;100.00
10618;BME280;5356;43.526;26.534;2023-01-29T04:42:37;99420.50;;;3.02;100.00
10618;BME280;5356;43.526;26.534;2023-01-29T04:45:17;99415.25;;;3.02;100.00
10618;BME280;5356;43.526;26.534;2023-01-29T04:47:57;99422.00;;;3.04;100.00
10618;BME280;5356;43.526;26.534;2023-01-29T04:50:27;99415.72;;;3.05;100.00
10618;BME280;5356;43.526;26.534;2023-01-29T04:53:09;99423.81;;;3.04;100.00
10618;BME280;5356;43.526;26.534;2023-01-29T04:55:50;99424.16;;;3.01;100.00
10618;BME280;5356;43.526;26.534;2023-01-29T04:58:37;99436.28;;;2.93;100.00
10618;BME280;5356;43.526;26.534;2023-01-29T05:01:06;99449.13;;;2.97;100.00
10618;BME280;5356;43.526;26.534;2023-01-29T05:03:33;99432.84;;;2.93;100.00
10618;BME280;5356;43.526;26.534;2023-01-29T05:06:01;99431.84;;;2.86;100.00
10618;BME280;5356;43.526;26.534;2023-01-29T05:08:28;99426.28;;;2.89;100.00
10618;BME280;5356;43.526;26.534;2023-01-29T05:10:57;99443.69;;;2.90;100.00
10618;BME280;5356;43.526;26.534;2023-01-29T05:13:23;99437.97;;;2.86;100.00
10618;BME280;5356;43.526;26.534;2023-01-29T05:16:12;99439.25;;;2.74;100.00
10618;BME280;5356;43.526;26.534;2023-01-29T05:18:39;99441.22;;;2.72;100.00
10618;BME280;5356;43.526;26.534;2023-01-29T05:21:06;99445.97;;;2.68;100.00
10618;BME280;5356;43.526;26.534;2023-01-29T05:23:32;99445.16;;;2.68;100.00
10618;BME280;5356;43.526;26.534;2023-01-29T05:25:58;99450.75;;;2.65;100.00
10618;BME280;5356;43.526;26.534;2023-01-29T05:28:26;99449.09;;;2.64;100.00
10618;BME280;5356;43.526;26.534;2023-01-29T05:30:54;99453.69;;;2.54;100.00
10618;BME280;5356;43.526;26.534;2023-01-29T05:33:30;99448.91;;;2.57;100.00
10618;BME280;5356;43.526;26.534;2023-01-29T05:35:58;99456.19;;;2.63;100.00
10618;BME280;5356;43.526;26.534;2023-01-29T05:38:23;99444.00;;;2.70;100.00
10618;BME280;5356;43.526;26.534;2023-01-29T05:40:49;99444.50;;;2.74;100.00
10618;BME280;5356;43.526;26.534;2023-01-29T05:43:17;99454.19;;;2.65;100.00
10618;BME280;5356;43.526;26.534;2023-01-29T05:45:43;99459.44;;;2.65;100.00
10618;BME280;5356;43.526;26.534;2023-01-29T05:48:15;99459.94;;;2.61;100.00
10618;BME280;5356;43.526;26.534;2023-01-29T05:50:41;99463.19;;;2.55;100.00
10618;BME280;5356;43.526;26.534;2023-01-29T05:53:07;99466.84;;;2.62;100.00
10618;BME280;5356;43.526;26.534;2023-01-29T05:55:33;99470.78;;;2.66;100.00
10618;BME280;5356;43.526;26.534;2023-01-29T05:57:58;99470.78;;;2.58;100.00
10618;BME280;5356;43.526;26.534;2023-01-29T06:00:24;99480.81;;;2.62;100.00
10618;BME280;5356;43.526;26.534;2023-01-29T06:02:49;99479.53;;;2.66;100.00
10618;BME280;5356;43.526;26.534;2023-01-29T06:05:15;99487.44;;;2.75;100.00
10618;BME280;5356;43.526;26.534;2023-01-29T06:07:40;99494.00;;;2.79;100.00
10618;BME280;5356;43.526;26.534;2023-01-29T06:10:14;99497.47;;;2.87;100.00
10618;BME280;5356;43.526;26.534;2023-01-29T06:12:41;99496.81;;;2.93;100.00
10618;BME280;5356;43.526;26.534;2023-01-29T06:15:07;99500.94;;;2.96;100.00
10618;BME280;5356;43.526;26.534;2023-01-29T06:17:32;99505.06;;;2.99;100.00
10618;BME280;5356;43.526;26.534;2023-01-29T06:19:58;99505.38;;;3.04;100.00
10618;BME280;5356;43.526;26.534;2023-01-29T06:22:23;99512.78;;;3.08;100.00
10618;BME280;5356;43.526;26.534;2023-01-29T06:24:49;99512.97;;;3.15;100.00
10618;BME280;5356;43.526;26.534;2023-01-29T06:27:14;99513.94;;;3.14;100.00
10618;BME280;5356;43.526;26.534;2023-01-29T06:29:40;99515.28;;;3.18;100.00
10618;BME280;5356;43.526;26.534;2023-01-29T06:32:05;99518.91;;;3.17;100.00
10618;BME280;5356;43.526;26.534;2023-01-29T06:34:30;99518.91;;;3.17;100.00
10618;BME280;5356;43.526;26.534;2023-01-29T06:36:56;99520.22;;;3.21;100.00
10618;BME280;5356;43.526;26.534;2023-01-29T06:39:21;99520.69;;;3.25;100.00
10618;BME280;5356;43.526;26.534;2023-01-29T06:41:47;99523.81;;;3.28;100.00
10618;BME280;5356;43.526;26.534;2023-01-29T06:44:12;99524.13;;;3.25;100.00
10618;BME280;5356;43.526;26.534;2023-01-29T06:46:38;99535.00;;;3.30;100.00
10618;BME280;5356;43.526;26.534;2023-01-29T06:49:03;99541.94;;;3.31;100.00
10618;BME280;5356;43.526;26.534;2023-01-29T06:51:29;99537.97;;;3.35;100.00
10618;BME280;5356;43.526;26.534;2023-01-29T06:53:54;99535.69;;;3.32;100.00
10618;BME280;5356;43.526;26.534;2023-01-29T06:56:21;99549.31;;;3.36;100.00
10618;BME280;5356;43.526;26.534;2023-01-29T06:58:47;99544.88;;;3.36;100.00
10618;BME280;5356;43.526;26.534;2023-01-29T07:01:13;99539.63;;;3.36;100.00
10618;BME280;5356;43.526;26.534;2023-01-29T07:03:38;99540.13;;;3.40;100.00
10618;BME280;5356;43.526;26.534;2023-01-29T07:06:06;99541.44;;;3.44;100.00
10618;BME280;5356;43.526;26.534;2023-01-29T07:08:38;99537.66;;;3.47;100.00
10618;BME280;5356;43.526;26.534;2023-01-29T07:11:05;99547.53;;;3.45;100.00
10618;BME280;5356;43.526;26.534;2023-01-29T07:13:31;99547.84;;;3.42;100.00
10618;BME280;5356;43.526;26.534;2023-01-29T07:16:00;99546.53;;;3.37;100.00
10618;BME280;5356;43.526;26.534;2023-01-29T07:18:27;99553.44;;;3.38;100.00
10618;BME280;5356;43.526;26.534;2023-01-29T07:20:53;99562.69;;;3.43;100.00
10618;BME280;5356;43.526;26.534;2023-01-29T07:23:18;99554.78;;;3.43;100.00
10618;BME280;5356;43.526;26.534;2023-01-29T07:25:44;99561.03;;;3.50;100.00
10618;BME280;5356;43.526;26.534;2023-01-29T07:28:10;99560.69;;;3.53;100.00
10618;BME280;5356;43.526;26.534;2023-01-29T07:30:35;99558.25;;;3.51;100.00
10618;BME280;5356;43.526;26.534;2023-01-29T07:33:03;99558.72;;;3.55;100.00
10618;BME280;5356;43.526;26.534;2023-01-29T07:35:29;99568.59;;;3.61;100.00
10618;BME280;5356;43.526;26.534;2023-01-29T07:37:54;99571.06;;;3.63;100.00
10618;BME280;5356;43.526;26.534;2023-01-29T07:40:20;99573.38;;;3.66;100.00
10618;BME280;5356;43.526;26.534;2023-01-29T07:42:45;99574.84;;;3.68;100.00
10618;BME280;5356;43.526;26.534;2023-01-29T07:45:11;99576.66;;;3.76;100.00
10618;BME280;5356;43.526;26.534;2023-01-29T07:47:36;99580.09;;;3.76;100.00
10618;BME280;5356;43.526;26.534;2023-01-29T07:50:03;99577.31;;;3.62;100.00
10618;BME280;5356;43.526;26.534;2023-01-29T07:52:30;99582.75;;;3.60;100.00
10618;BME280;5356;43.526;26.534;2023-01-29T07:54:56;99590.97;;;3.41;100.00
10618;BME280;5356;43.526;26.534;2023-01-29T07:57:21;99591.31;;;3.37;100.00
10618;BME280;5356;43.526;26.534;2023-01-29T07:59:47;99586.03;;;3.37;100.00
10618;BME280;5356;43.526;26.534;2023-01-29T08:02:13;99586.53;;;3.33;100.00
10618;BME280;5356;43.526;26.534;2023-01-29T08:04:38;99594.28;;;3.34;100.00
10618;BME280;5356;43.526;26.534;2023-01-29T08:07:04;99580.59;;;3.39;100.00
10618;BME280;5356;43.526;26.534;2023-01-29T08:09:30;99588.34;;;3.49;100.00
10618;BME280;5356;43.526;26.534;2023-01-29T08:11:56;99590.34;;;3.63;100.00
10618;BME280;5356;43.526;26.534;2023-01-29T08:14:22;99587.03;;;3.61;100.00
10618;BME280;5356;43.526;26.534;2023-01-29T08:16:48;99594.28;;;3.67;100.00
10618;BME280;5356;43.526;26.534;2023-01-29T08:19:14;99589.81;;;3.68;100.00
10618;BME280;5356;43.526;26.534;2023-01-29T08:21:39;99596.75;;;3.77;100.00
10618;BME280;5356;43.526;26.534;2023-01-29T08:24:05;99596.25;;;3.81;100.00
10618;BME280;5356;43.526;26.534;2023-01-29T08:26:31;99600.19;;;3.94;100.00
10618;BME280;5356;43.526;26.534;2023-01-29T08:28:57;99605.78;;;3.99;100.00
10618;BME280;5356;43.526;26.534;2023-01-29T08:31:22;99609.75;;;4.03;100.00
10618;BME280;5356;43.526;26.534;2023-01-29T08:33:48;99610.41;;;4.05;100.00
10618;BME280;5356;43.526;26.534;2023-01-29T08:36:13;99605.75;;;4.15;100.00
10618;BME280;5356;43.526;26.534;2023-01-29T08:38:39;99610.19;;;4.23;100.00
10618;BME280;5356;43.526;26.534;2023-01-29T08:41:05;99615.81;;;4.28;100.00
10618;BME280;5356;43.526;26.534;2023-01-29T08:43:31;99607.88;;;4.28;100.00
10618;BME280;5356;43.526;26.534;2023-01-29T08:45:57;99611.66;;;4.34;100.00
10618;BME280;5356;43.526;26.534;2023-01-29T08:48:22;99605.25;;;4.20;100.00
10618;BME280;5356;43.526;26.534;2023-01-29T08:50:49;99613.66;;;4.23;100.00
10618;BME280;5356;43.526;26.534;2023-01-29T08:53:15;99615.47;;;4.23;100.00
10618;BME280;5356;43.526;26.534;2023-01-29T08:55:40;99622.25;;;4.17;100.00
10618;BME280;5356;43.526;26.534;2023-01-29T08:58:08;99620.59;;;4.16;100.00
10618;BME280;5356;43.526;26.534;2023-01-29T09:00:34;99612.84;;;4.07;100.00
10618;BME280;5356;43.526;26.534;2023-01-29T09:03:00;99618.78;;;4.09;100.00
10618;BME280;5356;43.526;26.534;2023-01-29T09:05:26;99619.94;;;3.98;100.00
10618;BME280;5356;43.526;26.534;2023-01-29T09:07:53;99621.09;;;3.87;100.00
10618;BME280;5356;43.526;26.534;2023-01-29T09:10:18;99621.94;;;3.71;100.00
10618;BME280;5356;43.526;26.534;2023-01-29T09:12:44;99621.28;;;3.77;100.00
10618;BME280;5356;43.526;26.534;2023-01-29T09:15:10;99615.47;;;4.23;100.00
10618;BME280;5356;43.526;26.534;2023-01-29T09:17:35;99613.31;;;4.18;100.00
10618;BME280;5356;43.526;26.534;2023-01-29T09:20:01;99616.63;;;4.12;100.00
10618;BME280;5356;43.526;26.534;2023-01-29T09:22:27;99619.47;;;4.11;100.00
10618;BME280;5356;43.526;26.534;2023-01-29T09:24:52;99620.97;;;3.97;100.00
10618;BME280;5356;43.526;26.534;2023-01-29T09:27:18;99616.34;;;3.74;100.00
10618;BME280;5356;43.526;26.534;2023-01-29T09:29:43;99606.97;;;3.64;100.00
10618;BME280;5356;43.526;26.534;2023-01-29T09:32:09;99612.38;;;3.70;100.00
10618;BME280;5356;43.526;26.534;2023-01-29T09:34:34;99610.22;;;3.82;100.00
10618;BME280;5356;43.526;26.534;2023-01-29T09:37:00;99609.41;;;3.90;100.00
10618;BME280;5356;43.526;26.534;2023-01-29T09:39:25;99611.56;;;3.94;100.00
10618;BME280;5356;43.526;26.534;2023-01-29T09:42:27;99607.25;;;4.10;100.00
10618;BME280;5356;43.526;26.534;2023-01-29T09:47:37;99598.66;;;4.24;100.00
10618;BME280;5356;43.526;26.534;2023-01-29T09:50:12;99594.69;;;4.36;100.00
10618;BME280;5356;43.526;26.534;2023-01-29T09:52:58;99594.47;;;4.46;100.00
10618;BME280;5356;43.526;26.534;2023-01-29T09:55:30;99596.91;;;4.56;100.00
10618;BME280;5356;43.526;26.534;2023-01-29T09:57:58;99589.16;;;4.62;100.00
10618;BME280;5356;43.526;26.534;2023-01-29T10:01:14;99590.47;;;4.58;100.00
10618;BME280;5356;43.526;26.534;2023-01-29T10:06:41;99586.47;;;4.70;100.00
10618;BME280;5356;43.526;26.534;2023-01-29T10:15:19;99581.94;;;4.87;100.00
10618;BME280;5356;43.526;26.534;2023-01-29T10:20:57;99573.09;;;4.72;100.00
10618;BME280;5356;43.526;26.534;2023-01-29T10:23:36;99572.34;;;4.55;100.00
10618;BME280;5356;43.526;26.534;2023-01-29T10:26:02;99583.91;;;4.54;100.00
10618;BME280;5356;43.526;26.534;2023-01-29T10:28:34;99569.72;;;4.47;100.00
10618;BME280;5356;43.526;26.534;2023-01-29T10:31:10;99576.41;;;4.26;100.00
10618;BME280;5356;43.526;26.534;2023-01-29T10:33:41;99566.38;;;4.22;100.00
10618;BME280;5356;43.526;26.534;2023-01-29T10:36:14;99568.81;;;4.23;100.00
10618;BME280;5356;43.526;26.534;2023-01-29T10:38:49;99558.28;;;4.23;100.00
10618;BME280;5356;43.526;26.534;2023-01-29T10:54:53;99551.66;;;4.67;100.00
10618;BME280;5356;43.526;26.534;2023-01-29T11:00:21;99537.31;;;4.69;100.00
10618;BME280;5356;43.526;26.534;2023-01-29T11:02:49;99539.78;;;4.71;100.00
10618;BME280;5356;43.526;26.534;2023-01-29T11:05:34;99538.47;;;4.67;100.00
10618;BME280;5356;43.526;26.534;2023-01-29T11:08:13;99541.31;;;4.65;100.00
10618;BME280;5356;43.526;26.534;2023-01-29T11:11:05;99542.25;;;4.72;100.00
10618;BME280;5356;43.526;26.534;2023-01-29T11:13:39;99544.75;;;4.66;100.00
10618;BME280;5356;43.526;26.534;2023-01-29T11:16:05;99551.16;;;4.71;100.00
10618;BME280;5356;43.526;26.534;2023-01-29T11:18:58;99541.31;;;4.65;100.00
10618;BME280;5356;43.526;26.534;2023-01-29T11:21:26;99538.97;;;4.70;100.00
10618;BME280;5356;43.526;26.534;2023-01-29T11:24:24;99534.97;;;4.75;100.00
10618;BME280;5356;43.526;26.534;2023-01-29T11:26:52;99536.34;;;4.70;100.00
10618;BME280;5356;43.526;26.534;2023-01-29T11:29:37;99527.59;;;4.70;100.00
10618;BME280;5356;43.526;26.534;2023-01-29T11:32:06;99521.84;;;4.66;100.00
10618;BME280;5356;43.526;26.534;2023-01-29T11:34:32;99527.59;;;4.70;100.00
10618;BME280;5356;43.526;26.534;2023-01-29T11:37:02;99519.97;;;4.44;100.00
10618;BME280;5356;43.526;26.534;2023-01-29T11:39:30;99523.88;;;4.17;100.00
10618;BME280;5356;43.526;26.534;2023-01-29T11:41:57;99525.03;;;4.06;100.00
10618;BME280;5356;43.526;26.534;2023-01-29T11:46:52;99523.75;;;4.02;100.00
10618;BME280;5356;43.526;26.534;2023-01-29T11:49:29;99519.81;;;3.81;100.00
10618;BME280;5356;43.526;26.534;2023-01-29T11:51:58;99515.56;;;3.64;100.00
10618;BME280;5356;43.526;26.534;2023-01-29T11:54:30;99517.22;;;3.65;100.00
10618;BME280;5356;43.526;26.534;2023-01-29T11:56:57;99515.25;;;3.59;100.00
10618;BME280;5356;43.526;26.534;2023-01-29T11:59:42;99522.81;;;3.70;100.00
10618;BME280;5356;43.526;26.534;2023-01-29T12:02:30;99517.88;;;3.75;100.00
10618;BME280;5356;43.526;26.534;2023-01-29T12:05:00;99512.91;;;3.80;100.00
10618;BME280;5356;43.526;26.534;2023-01-29T12:07:29;99518.53;;;3.69;100.00
10618;BME280;5356;43.526;26.534;2023-01-29T12:09:57;99512.09;;;3.80;100.00
10618;BME280;5356;43.526;26.534;2023-01-29T12:12:41;99517.50;;;3.95;100.00
10618;BME280;5356;43.526;26.534;2023-01-29T12:17:46;99506.63;;;3.98;100.00
10618;BME280;5356;43.526;26.534;2023-01-29T12:20:25;99504.75;;;4.15;100.00
10618;BME280;5356;43.526;26.534;2023-01-29T12:23:20;99502.22;;;4.30;100.00
10618;BME280;5356;43.526;26.534;2023-01-29T12:34:44;99504.31;;;4.42;100.00
10618;BME280;5356;43.526;26.534;2023-01-29T12:39:44;99503.09;;;4.22;100.00
10618;BME280;5356;43.526;26.534;2023-01-29T12:42:20;99511.06;;;3.97;100.00
10618;BME280;5356;43.526;26.534;2023-01-29T12:47:29;99516.22;;;3.91;100.00
10618;BME280;5356;43.526;26.534;2023-01-29T12:49:57;99513.53;;;3.99;100.00
10618;BME280;5356;43.526;26.534;2023-01-29T12:52:45;99515.56;;;3.72;100.00
10618;BME280;5356;43.526;26.534;2023-01-29T12:55:37;99520.34;;;3.77;100.00
10618;BME280;5356;43.526;26.534;2023-01-29T12:58:11;99518.66;;;3.84;100.00
10618;BME280;5356;43.526;26.534;2023-01-29T13:00:39;99518.66;;;3.84;100.00
10618;BME280;5356;43.526;26.534;2023-01-29T13:03:20;99521.16;;;3.69;100.00
10618;BME280;5356;43.526;26.534;2023-01-29T13:05:51;99526.28;;;3.63;100.00
10618;BME280;5356;43.526;26.534;2023-01-29T13:08:22;99515.72;;;3.71;100.00
10618;BME280;5356;43.526;26.534;2023-01-29T13:10:52;99514.75;;;3.72;100.00
10618;BME280;5356;43.526;26.534;2023-01-29T13:16:19;99520.00;;;3.80;100.00
10618;BME280;5356;43.526;26.534;2023-01-29T13:18:49;99530.69;;;3.78;100.00
10618;BME280;5356;43.526;26.534;2023-01-29T13:21:20;99528.72;;;3.89;100.00
10618;BME280;5356;43.526;26.534;2023-01-29T13:23:50;99524.41;;;3.96;100.00
10618;BME280;5356;43.526;26.534;2023-01-29T13:26:18;99531.34;;;3.97;100.00
10618;BME280;5356;43.526;26.534;2023-01-29T13:28:44;99527.03;;;4.04;100.00
10618;BME280;5356;43.526;26.534;2023-01-29T13:36:28;99528.03;;;3.95;100.00
10618;BME280;5356;43.526;26.534;2023-01-29T13:38:59;99530.84;;;3.93;100.00
10618;BME280;5356;43.526;26.534;2023-01-29T13:41:34;99532.16;;;3.97;100.00
10618;BME280;5356;43.526;26.534;2023-01-29T13:44:01;99531.03;;;3.92;100.00
10618;BME280;5356;43.526;26.534;2023-01-29T13:46:30;99532.19;;;3.81;100.00
10618;BME280;5356;43.526;26.534;2023-01-29T13:48:56;99529.22;;;3.76;100.00
10618;BME280;5356;43.526;26.534;2023-01-29T13:51:32;99535.63;;;3.73;100.00
10618;BME280;5356;43.526;26.534;2023-01-29T13:54:06;99532.03;;;3.91;100.00
10618;BME280;5356;43.526;26.534;2023-01-29T13:59:00;99529.69;;;3.96;100.00
10618;BME280;5356;43.526;26.534;2023-01-29T14:04:22;99538.59;;;3.95;100.00
10618;BME280;5356;43.526;26.534;2023-01-29T14:06:57;99534.59;;;3.99;100.00
10618;BME280;5356;43.526;26.534;2023-01-29T14:11:57;99539.19;;;4.13;100.00
10618;BME280;5356;43.526;26.534;2023-01-29T14:17:15;99536.88;;;4.10;100.00
10618;BME280;5356;43.526;26.534;2023-01-29T14:19:54;99528.34;;;4.08;100.00
10618;BME280;5356;43.526;26.534;2023-01-29T14:22:24;99534.56;;;4.15;100.00
10618;BME280;5356;43.526;26.534;2023-01-29T14:25:15;99525.34;;;4.19;100.00
10618;BME280;5356;43.526;26.534;2023-01-29T14:27:46;99527.69;;;4.06;100.00
10618;BME280;5356;43.526;26.534;2023-01-29T14:30:16;99530.47;;;4.04;100.00
10618;BME280;5356;43.526;26.534;2023-01-29T14:32:45;99526.69;;;4.07;100.00
10618;BME280;5356;43.526;26.534;2023-01-29T14:35:18;99536.41;;;4.07;100.00
10618;BME280;5356;43.526;26.534;2023-01-29T14:37:46;99539.22;;;4.05;100.00
10618;BME280;5356;43.526;26.534;2023-01-29T14:47:53;99549.81;;;3.72;100.00
10618;BME280;5356;43.526;26.534;2023-01-29T14:53:16;99543.88;;;3.87;100.00
10618;BME280;5356;43.526;26.534;2023-01-29T14:56:03;99544.19;;;4.00;100.00
10618;BME280;5356;43.526;26.534;2023-01-29T15:01:01;99541.53;;;4.08;100.00
10618;BME280;5356;43.526;26.534;2023-01-29T15:03:43;99538.56;;;4.03;100.00
10618;BME280;5356;43.526;26.534;2023-01-29T15:06:17;99542.22;;;4.02;100.00
10618;BME280;5356;43.526;26.534;2023-01-29T15:08:52;99538.25;;;3.98;100.00
10618;BME280;5356;43.526;26.534;2023-01-29T15:11:26;99533.16;;;3.96;100.00
10618;BME280;5356;43.526;26.534;2023-01-29T15:14:28;99539.09;;;3.82;100.00
10618;BME280;5356;43.526;26.534;2023-01-29T15:19:37;99536.97;;;3.69;100.00
10618;BME280;5356;43.526;26.534;2023-01-29T15:22:13;99554.25;;;3.72;100.00
10618;BME280;5356;43.526;26.534;2023-01-29T15:24:41;99549.16;;;3.78;100.00
10618;BME280;5356;43.526;26.534;2023-01-29T15:27:11;99538.59;;;3.87;100.00
10618;BME280;5356;43.526;26.534;2023-01-29T15:29:38;99550.78;;;3.88;100.00
10618;BME280;5356;43.526;26.534;2023-01-29T15:32:05;99544.19;;;3.92;100.00